Terminal Aerodrome Forecast
Issued by NWS Green Bay, WI

Home | Current Version | Previous Version | Text Only | Print | Product List | Glossary Off
Versions: 1 2 3 4 5 6 7 8 9 10 11 12 13 14 15 16 17 18 19 20 21 22 23 24 25 26 27 28 29 30 31 32 33 34 35 36 37 38 39 40 41 42

000
FTUS43 KGRB 241100
TAFGRB
TAF
KGRB 241140Z 2412/2512 11004KT 6SM BR SCT015 OVC150
      TEMPO 2412/2415 BKN015
     FM241500 11006KT 6SM BR BKN018
     FM241700 11007KT 6SM HZ SCT025 BKN040
     FM242100 12008KT P6SM SCT030 SCT050
     FM250100 12003KT 5SM BR SCT100 BKN250
     FM250700 12003KT 3SM BR SCT009 BKN070 PROB30 2508/2512 2SM SHRA
      BKN015=

USA.gov is the U.S. government's official web portal to all federal, state and local government web resources and services.